createdAt,value
2022-11-12T00:01:35.752Z,5.74
2022-11-12T00:04:21.242Z,5.77
2022-11-12T00:07:06.590Z,5.81
2022-11-12T00:09:52.408Z,5.77
2022-11-12T00:12:38.080Z,5.79
2022-11-12T00:15:23.793Z,5.80
2022-11-12T00:18:09.396Z,5.78
2022-11-12T00:20:54.949Z,5.73
2022-11-12T00:23:40.306Z,5.71
2022-11-12T00:26:25.583Z,5.66
2022-11-12T00:29:11.465Z,5.65
2022-11-12T00:31:56.695Z,5.68
2022-11-12T00:34:42.399Z,5.69
2022-11-12T00:37:28.147Z,5.65
2022-11-12T00:40:13.904Z,5.70
2022-11-12T00:42:59.508Z,5.70
2022-11-12T00:45:45.045Z,5.71
2022-11-12T00:48:30.390Z,5.76
2022-11-12T00:51:15.958Z,5.79
2022-11-12T00:54:01.379Z,5.79
2022-11-12T00:56:47.754Z,5.75
2022-11-12T00:59:33.375Z,5.71
2022-11-12T01:02:20.474Z,5.73
2022-11-12T01:05:07.807Z,5.80
2022-11-12T01:07:55.997Z,5.84
2022-11-12T01:10:44.619Z,5.97
2022-11-12T01:13:30.029Z,5.92
2022-11-12T01:16:22.445Z,5.89
2022-11-12T01:19:12.324Z,5.94
2022-11-12T01:21:57.862Z,6.00
2022-11-12T01:24:43.483Z,6.08
2022-11-12T01:27:28.967Z,6.24
2022-11-12T01:30:16.121Z,6.38
2022-11-12T01:33:01.496Z,6.51
2022-11-12T01:35:47.076Z,6.66
2022-11-12T01:38:40.149Z,6.74
2022-11-12T01:41:28.666Z,6.82
2022-11-12T01:44:20.407Z,6.69
2022-11-12T01:47:28.215Z,6.64
2022-11-12T01:50:28.197Z,6.62
2022-11-12T01:53:14.370Z,6.59
2022-11-12T01:56:03.345Z,6.55
2022-11-12T01:58:57.243Z,6.55
2022-11-12T02:01:42.990Z,6.56
2022-11-12T02:04:29.245Z,6.57
2022-11-12T02:07:16.395Z,6.67
2022-11-12T02:10:04.219Z,6.68
2022-11-12T02:13:11.222Z,6.60
2022-11-12T02:15:57.003Z,6.50
2022-11-12T02:18:42.371Z,6.40
2022-11-12T02:21:29.124Z,6.39
2022-11-12T02:24:14.648Z,6.32
2022-11-12T02:27:00.127Z,6.27
2022-11-12T02:29:48.191Z,6.23
2022-11-12T02:32:33.798Z,6.19
2022-11-12T02:35:19.462Z,6.15
2022-11-12T02:38:07.210Z,6.13
2022-11-12T02:40:52.536Z,6.10
2022-11-12T02:43:37.694Z,6.17
2022-11-12T02:46:23.820Z,6.17
2022-11-12T02:49:09.653Z,6.25
2022-11-12T02:51:55.407Z,6.25
2022-11-12T02:54:40.795Z,6.19
2022-11-12T02:57:27.413Z,6.31
2022-11-12T03:00:14.304Z,6.41
2022-11-12T03:02:59.568Z,6.45
2022-11-12T03:05:54.403Z,6.54
2022-11-12T03:08:39.786Z,6.59
2022-11-12T03:11:25.187Z,6.64
2022-11-12T03:14:11.124Z,6.66
2022-11-12T03:16:56.554Z,6.78
2022-11-12T03:19:42.390Z,6.90
2022-11-12T03:22:27.575Z,6.91
2022-11-12T03:25:12.894Z,6.97
2022-11-12T03:27:59.995Z,7.02
2022-11-12T03:30:46.662Z,6.98
2022-11-12T03:33:32.155Z,7.05
2022-11-12T03:36:17.414Z,7.07
2022-11-12T03:39:03.317Z,7.11
2022-11-12T03:41:49.053Z,7.18
2022-11-12T03:44:34.554Z,7.19
2022-11-12T03:47:20.249Z,7.13
2022-11-12T03:50:06.715Z,7.10
2022-11-12T03:52:54.368Z,7.10
2022-11-12T03:55:39.949Z,6.98
2022-11-12T03:58:25.736Z,6.97
2022-11-12T04:01:12.010Z,7.05
2022-11-12T04:03:59.120Z,6.98
2022-11-12T04:07:03.536Z,7.11
2022-11-12T04:09:49.148Z,7.15
2022-11-12T04:12:53.149Z,7.10
2022-11-12T04:15:38.757Z,7.03
2022-11-12T04:18:43.068Z,6.88
2022-11-12T04:21:51.170Z,6.69
2022-11-12T04:25:00.597Z,6.53
2022-11-12T04:27:46.251Z,6.37
2022-11-12T04:30:32.149Z,6.28
2022-11-12T04:33:17.457Z,6.20
2022-11-12T04:36:03.330Z,6.17
2022-11-12T04:38:48.769Z,6.16
2022-11-12T04:41:53.485Z,6.08
2022-11-12T04:44:57.967Z,5.99
2022-11-12T04:47:44.127Z,6.03
2022-11-12T04:50:29.578Z,6.04
2022-11-12T04:53:15.118Z,6.21
2022-11-12T04:56:00.422Z,6.13
2022-11-12T04:58:47.315Z,6.13
2022-11-12T05:01:32.975Z,6.42
2022-11-12T05:04:18.654Z,6.35
2022-11-12T05:07:04.458Z,6.23
2022-11-12T05:09:50.055Z,6.11
2022-11-12T05:12:36.595Z,6.05
2022-11-12T05:15:22.491Z,6.05
2022-11-12T05:18:08.045Z,6.04
2022-11-12T05:20:54.080Z,6.04
2022-11-12T05:23:39.851Z,6.00
2022-11-12T05:26:24.999Z,6.00
2022-11-12T05:29:10.664Z,6.00
2022-11-12T05:31:56.096Z,5.97
2022-11-12T05:34:42.110Z,5.98
2022-11-12T05:37:27.663Z,5.82
2022-11-12T05:40:13.592Z,5.76
2022-11-12T05:42:59.217Z,5.69
2022-11-12T05:45:45.238Z,5.61
2022-11-12T05:48:31.492Z,5.60
2022-11-12T05:51:17.447Z,5.57
2022-11-12T05:54:04.624Z,5.58
2022-11-12T05:56:51.966Z,5.59
2022-11-12T05:59:37.442Z,5.52
2022-11-12T06:02:22.832Z,5.50
2022-11-12T06:05:09.808Z,5.48
2022-11-12T06:07:55.596Z,5.53
2022-11-12T06:10:41.296Z,5.51
2022-11-12T06:13:27.701Z,5.60
2022-11-12T06:16:13.460Z,5.68
2022-11-12T06:18:59.501Z,5.75
2022-11-12T06:21:45.186Z,5.78
2022-11-12T06:24:34.899Z,5.77
2022-11-12T06:27:21.210Z,5.88
2022-11-12T06:30:08.084Z,5.86
2022-11-12T06:32:53.370Z,5.87
2022-11-12T06:35:42.751Z,5.96
2022-11-12T06:38:39.984Z,5.95
2022-11-12T06:41:25.149Z,5.96
2022-11-12T06:44:10.559Z,5.97
2022-11-12T06:46:55.886Z,6.03
2022-11-12T06:49:41.271Z,6.04
2022-11-12T06:52:26.803Z,6.07
2022-11-12T06:55:13.181Z,6.15
2022-11-12T06:57:58.800Z,6.18
2022-11-12T07:00:44.380Z,6.26
2022-11-12T07:03:30.071Z,6.27
2022-11-12T07:06:20.377Z,6.32
2022-11-12T07:09:06.641Z,6.33
2022-11-12T07:11:52.245Z,6.40
2022-11-12T07:14:38.581Z,6.45
2022-11-12T07:17:23.930Z,6.64
2022-11-12T07:20:10.824Z,6.77
2022-11-12T07:23:00.832Z,7.04
2022-11-12T07:25:46.550Z,7.17
2022-11-12T07:28:32.017Z,7.31
2022-11-12T07:31:19.484Z,7.54
2022-11-12T07:34:05.495Z,7.73
2022-11-12T07:36:51.962Z,7.88
2022-11-12T07:39:37.521Z,8.07
2022-11-12T07:42:22.810Z,8.14
2022-11-12T07:45:09.494Z,8.26
2022-11-12T07:47:55.151Z,8.38
2022-11-12T07:50:41.852Z,8.53
2022-11-12T07:53:28.816Z,8.71
2022-11-12T07:56:17.118Z,8.88
2022-11-12T07:59:02.418Z,9.02
2022-11-12T08:01:47.752Z,9.03
2022-11-12T08:04:33.498Z,9.16
2022-11-12T08:07:19.042Z,9.28
2022-11-12T08:10:04.971Z,9.40
2022-11-12T08:12:50.836Z,9.67
2022-11-12T08:15:36.486Z,9.73
2022-11-12T08:18:21.934Z,9.62
2022-11-12T08:21:11.176Z,9.66
2022-11-12T08:23:57.135Z,9.67
2022-11-12T08:26:42.749Z,9.72
2022-11-12T08:29:28.060Z,9.72
2022-11-12T08:32:13.438Z,9.84
2022-11-12T08:34:58.979Z,9.91
2022-11-12T08:37:44.432Z,9.82
2022-11-12T08:40:31.684Z,10.06
2022-11-12T08:43:17.029Z,10.11
2022-11-12T08:46:05.260Z,10.00
2022-11-12T08:48:51.098Z,10.00
2022-11-12T08:51:36.552Z,9.93
2022-11-12T08:54:22.192Z,10.00
2022-11-12T08:57:07.727Z,10.18
2022-11-12T08:59:53.303Z,10.41
2022-11-12T09:02:39.225Z,10.45
2022-11-12T09:05:24.924Z,10.45
2022-11-12T09:08:13.146Z,10.50
2022-11-12T09:10:59.340Z,10.35
2022-11-12T09:13:47.252Z,10.37
2022-11-12T09:16:32.834Z,10.32
2022-11-12T09:19:18.506Z,10.14
2022-11-12T09:22:03.758Z,10.04
2022-11-12T09:24:49.571Z,9.94
2022-11-12T09:27:35.171Z,10.04
2022-11-12T09:30:21.473Z,9.97
2022-11-12T09:33:07.417Z,10.02
2022-11-12T09:35:53.884Z,10.08
2022-11-12T09:38:39.629Z,10.09
2022-11-12T09:41:45.708Z,10.24
2022-11-12T09:44:36.710Z,10.43
2022-11-12T09:47:28.211Z,10.57
2022-11-12T09:50:26.046Z,10.70
2022-11-12T09:53:48.261Z,10.63
2022-11-12T09:56:33.722Z,10.77
2022-11-12T09:59:19.642Z,10.76
2022-11-12T10:02:45.272Z,10.94
2022-11-12T10:05:46.648Z,11.14
2022-11-12T10:08:45.034Z,11.28
2022-11-12T10:12:17.317Z,11.54
2022-11-12T10:15:55.643Z,11.63
2022-11-12T10:18:59.653Z,11.61
2022-11-12T10:21:44.905Z,11.66
2022-11-12T10:24:36.160Z,11.60
2022-11-12T10:27:27.495Z,12.02
2022-11-12T10:30:24.840Z,12.32
2022-11-12T10:33:19.114Z,12.30
2022-11-12T10:36:23.801Z,12.25
2022-11-12T10:39:09.225Z,12.44
2022-11-12T10:42:12.866Z,12.56
2022-11-12T10:45:19.866Z,12.56
2022-11-12T10:48:05.886Z,12.63
2022-11-12T10:50:51.659Z,12.55
2022-11-12T10:53:39.496Z,12.60
2022-11-12T10:56:26.646Z,12.67
2022-11-12T10:59:22.921Z,12.79
2022-11-12T11:02:19.758Z,12.88
2022-11-12T11:05:32.080Z,12.86
2022-11-12T11:08:35.897Z,12.93
2022-11-12T11:11:26.295Z,12.94
2022-11-12T11:14:25.805Z,12.97
2022-11-12T11:17:20.946Z,13.05
2022-11-12T11:20:24.261Z,13.19
2022-11-12T11:23:29.170Z,13.20
2022-11-12T11:26:37.950Z,13.05
2022-11-12T11:29:52.497Z,13.11
2022-11-12T11:32:43.707Z,13.24
2022-11-12T11:35:40.142Z,13.41
2022-11-12T11:38:32.331Z,13.58
2022-11-12T11:41:37.184Z,13.74
2022-11-12T11:44:36.339Z,13.88
2022-11-12T11:48:00.531Z,14.07
2022-11-12T11:51:06.870Z,14.09
2022-11-12T11:54:30.428Z,13.97
2022-11-12T11:57:29.571Z,14.09
2022-11-12T12:00:23.356Z,14.14
2022-11-12T12:03:12.020Z,14.16
2022-11-12T12:06:18.601Z,14.04
2022-11-12T12:09:39.193Z,13.88
2022-11-12T12:12:30.855Z,13.86
2022-11-12T12:15:35.093Z,13.74
2022-11-12T12:18:27.132Z,13.56
2022-11-12T12:21:19.691Z,13.47
2022-11-12T12:24:15.874Z,13.48
2022-11-12T12:27:14.620Z,13.40
2022-11-12T12:30:05.145Z,13.45
2022-11-12T12:32:59.515Z,13.51
2022-11-12T12:35:59.330Z,13.69
2022-11-12T12:38:52.363Z,13.83
2022-11-12T12:41:44.608Z,13.85
2022-11-12T12:45:01.376Z,14.02
2022-11-12T12:47:51.234Z,13.94
2022-11-12T12:50:40.769Z,14.01
2022-11-12T12:53:33.956Z,13.97
2022-11-12T12:56:22.290Z,14.05
2022-11-12T12:59:19.895Z,13.94
2022-11-12T13:02:21.601Z,13.93
2022-11-12T13:05:22.209Z,13.97
2022-11-12T13:08:21.275Z,13.83
2022-11-12T13:11:06.820Z,13.79
2022-11-12T13:13:52.165Z,13.72
2022-11-12T13:16:50.512Z,13.67
2022-11-12T13:19:40.594Z,13.62
2022-11-12T13:22:40.357Z,13.59
2022-11-12T13:25:30.099Z,13.51
2022-11-12T13:28:16.625Z,13.41
2022-11-12T13:31:04.655Z,13.44
2022-11-12T13:33:50.530Z,13.42
2022-11-12T13:36:36.485Z,13.51
2022-11-12T13:39:23.808Z,13.45
2022-11-12T13:42:33.584Z,13.50
2022-11-12T13:45:24.647Z,13.53
2022-11-12T13:48:27.300Z,13.55
2022-11-12T13:51:22.415Z,13.44
2022-11-12T13:54:28.209Z,13.31
2022-11-12T13:57:19.993Z,13.31
2022-11-12T14:00:18.014Z,13.30
2022-11-12T14:03:07.960Z,13.31
2022-11-12T14:05:54.593Z,13.24
2022-11-12T14:09:21.697Z,13.22
2022-11-12T14:12:17.071Z,13.22
2022-11-12T14:15:42.662Z,13.22
2022-11-12T14:19:04.015Z,13.10
2022-11-12T14:22:13.732Z,13.07
2022-11-12T14:25:02.708Z,12.93
2022-11-12T14:27:49.601Z,12.96
2022-11-12T14:30:45.027Z,12.81
2022-11-12T14:33:34.568Z,12.77
2022-11-12T14:36:21.610Z,12.72
2022-11-12T14:39:07.331Z,12.62
2022-11-12T14:41:54.649Z,12.61
2022-11-12T14:44:41.424Z,12.56
2022-11-12T14:47:28.646Z,12.46
2022-11-12T14:50:21.210Z,12.41
2022-11-12T14:53:37.766Z,12.33
2022-11-12T14:56:35.734Z,12.27
2022-11-12T14:59:21.606Z,12.12
2022-11-12T15:02:31.388Z,11.95
2022-11-12T15:05:23.691Z,11.89
2022-11-12T15:08:12.119Z,11.70
2022-11-12T15:11:23.154Z,11.64
2022-11-12T15:14:21.903Z,11.58
2022-11-12T15:17:22.900Z,11.55
2022-11-12T15:20:16.915Z,11.47
2022-11-12T15:23:03.286Z,11.41
2022-11-12T15:25:59.175Z,11.41
2022-11-12T15:28:59.224Z,11.43
2022-11-12T15:31:49.435Z,11.39
2022-11-12T15:34:40.902Z,11.30
2022-11-12T15:37:31.015Z,11.23
2022-11-12T15:40:20.670Z,11.20
2022-11-12T15:43:18.668Z,11.12
2022-11-12T15:46:05.770Z,11.04
2022-11-12T15:48:55.832Z,10.90
2022-11-12T15:51:42.408Z,10.77
2022-11-12T15:54:29.672Z,10.69
2022-11-12T15:57:18.888Z,10.60
2022-11-12T16:00:15.515Z,10.52
2022-11-12T16:03:12.371Z,10.44
2022-11-12T16:05:57.992Z,10.41
2022-11-12T16:08:46.735Z,10.38
2022-11-12T16:11:35.647Z,10.38
2022-11-12T16:14:24.779Z,10.33
2022-11-12T16:17:16.172Z,10.31
2022-11-12T16:20:04.099Z,10.30
2022-11-12T16:22:52.059Z,10.26
2022-11-12T16:25:40.719Z,10.22
2022-11-12T16:28:26.649Z,10.20
2022-11-12T16:31:12.078Z,10.23
2022-11-12T16:33:58.083Z,10.24
2022-11-12T16:36:43.726Z,10.24
2022-11-12T16:39:29.340Z,10.26
2022-11-12T16:42:14.628Z,10.32
2022-11-12T16:45:00.428Z,10.31
2022-11-12T16:47:52.371Z,10.33
2022-11-12T16:50:38.078Z,10.28
2022-11-12T16:53:25.415Z,10.28
2022-11-12T16:56:19.833Z,10.28
2022-11-12T16:59:05.752Z,10.26
2022-11-12T17:01:51.779Z,10.19
2022-11-12T17:04:37.375Z,10.20
2022-11-12T17:07:25.268Z,10.18
2022-11-12T17:10:11.614Z,10.15
2022-11-12T17:12:57.569Z,10.08
2022-11-12T17:15:43.298Z,10.04
2022-11-12T17:18:29.680Z,10.04
2022-11-12T17:21:19.284Z,10.03
2022-11-12T17:24:05.054Z,10.02
2022-11-12T17:26:50.291Z,10.05
2022-11-12T17:29:36.120Z,10.01
2022-11-12T17:32:21.709Z,10.02
2022-11-12T17:35:11.913Z,9.91
2022-11-12T17:37:57.216Z,9.83
2022-11-12T17:40:43.063Z,9.80
2022-11-12T17:43:31.071Z,9.75
2022-11-12T17:46:16.799Z,9.72
2022-11-12T17:49:03.997Z,9.68
2022-11-12T17:51:49.945Z,9.62
2022-11-12T17:54:36.992Z,9.56
2022-11-12T17:57:22.952Z,9.48
2022-11-12T18:00:11.387Z,9.43
2022-11-12T18:02:57.403Z,9.32
2022-11-12T18:05:43.310Z,9.27
2022-11-12T18:08:28.941Z,9.29
2022-11-12T18:11:15.306Z,9.23
2022-11-12T18:14:06.718Z,9.22
2022-11-12T18:16:52.455Z,9.21
2022-11-12T18:19:38.332Z,9.19
2022-11-12T18:22:23.954Z,9.14
2022-11-12T18:25:09.734Z,9.11
2022-11-12T18:27:55.016Z,9.13
2022-11-12T18:30:40.928Z,9.17
2022-11-12T18:33:27.093Z,9.15
2022-11-12T18:36:26.466Z,9.16
2022-11-12T18:39:12.120Z,9.15
2022-11-12T18:41:57.828Z,9.19
2022-11-12T18:44:43.695Z,9.20
2022-11-12T18:47:30.804Z,9.24
2022-11-12T18:50:16.574Z,9.24
2022-11-12T18:53:02.152Z,9.24
2022-11-12T18:55:48.142Z,9.25
2022-11-12T18:58:35.594Z,9.27
2022-11-12T19:01:23.451Z,9.30
2022-11-12T19:04:13.624Z,9.34
2022-11-12T19:07:06.074Z,9.40
2022-11-12T19:09:51.580Z,9.47
2022-11-12T19:12:38.384Z,9.51
2022-11-12T19:15:26.707Z,9.53
2022-11-12T19:18:14.194Z,9.54
2022-11-12T19:21:05.853Z,9.53
2022-11-12T19:23:54.759Z,9.57
2022-11-12T19:26:42.453Z,9.56
2022-11-12T19:29:27.952Z,9.54
2022-11-12T19:32:13.728Z,9.49
2022-11-12T19:34:59.608Z,9.57
2022-11-12T19:37:48.029Z,9.50
2022-11-12T19:40:33.666Z,9.45
2022-11-12T19:43:19.995Z,9.39
2022-11-12T19:46:05.692Z,9.35
2022-11-12T19:48:51.984Z,9.33
2022-11-12T19:51:38.136Z,9.33
2022-11-12T19:54:23.951Z,9.34
2022-11-12T19:57:09.341Z,9.35
2022-11-12T19:59:56.399Z,9.34
2022-11-12T20:02:46.189Z,9.44
2022-11-12T20:05:35.959Z,9.43
2022-11-12T20:08:24.068Z,9.48
2022-11-12T20:11:10.305Z,9.50
2022-11-12T20:13:55.792Z,9.50
2022-11-12T20:16:41.435Z,9.50
2022-11-12T20:19:27.770Z,9.48
2022-11-12T20:22:13.835Z,9.47
2022-11-12T20:24:59.630Z,9.45
2022-11-12T20:27:45.306Z,9.43
2022-11-12T20:30:31.706Z,9.38
2022-11-12T20:33:17.211Z,9.37
2022-11-12T20:36:13.846Z,9.33
2022-11-12T20:39:00.138Z,9.32
2022-11-12T20:41:45.591Z,9.33
2022-11-12T20:44:30.889Z,9.35
2022-11-12T20:47:16.217Z,9.36
2022-11-12T20:50:01.557Z,9.37
2022-11-12T20:52:46.888Z,9.47
2022-11-12T20:55:32.684Z,9.46
2022-11-12T20:58:18.123Z,9.41
2022-11-12T21:01:05.339Z,9.39
2022-11-12T21:03:51.548Z,9.37
2022-11-12T21:06:37.077Z,9.28
2022-11-12T21:09:22.648Z,9.19
2022-11-12T21:12:08.134Z,9.11
2022-11-12T21:14:53.449Z,9.02
2022-11-12T21:17:38.924Z,8.91
2022-11-12T21:20:24.481Z,8.85
2022-11-12T21:23:10.061Z,8.78
2022-11-12T21:25:55.623Z,8.71
2022-11-12T21:28:49.750Z,8.59
2022-11-12T21:31:35.514Z,8.50
2022-11-12T21:34:20.859Z,8.44
2022-11-12T21:37:06.827Z,8.38
2022-11-12T21:39:52.767Z,8.30
2022-11-12T21:42:41.992Z,8.23
2022-11-12T21:45:27.265Z,8.15
2022-11-12T21:48:12.663Z,8.12
2022-11-12T21:51:06.297Z,8.03
2022-11-12T21:53:56.777Z,7.98
2022-11-12T21:56:42.269Z,7.89
2022-11-12T21:59:27.645Z,7.79
2022-11-12T22:02:14.150Z,7.68
2022-11-12T22:04:59.805Z,7.65
2022-11-12T22:07:45.237Z,7.55
2022-11-12T22:10:30.669Z,7.47
2022-11-12T22:13:31.275Z,7.38
2022-11-12T22:16:22.599Z,7.27
2022-11-12T22:19:07.742Z,7.21
2022-11-12T22:22:00.057Z,7.18
2022-11-12T22:24:45.368Z,7.11
2022-11-12T22:27:33.764Z,7.05
2022-11-12T22:30:19.061Z,7.02
2022-11-12T22:33:04.666Z,6.92
2022-11-12T22:35:50.120Z,6.87
2022-11-12T22:38:41.001Z,6.81
2022-11-12T22:41:31.177Z,6.75
2022-11-12T22:44:16.841Z,6.70
2022-11-12T22:47:02.061Z,6.70
2022-11-12T22:49:48.463Z,6.70
2022-11-12T22:52:33.794Z,6.66
2022-11-12T22:55:19.163Z,6.63
2022-11-12T22:58:04.459Z,6.58
2022-11-12T23:00:49.925Z,6.55
2022-11-12T23:03:36.283Z,6.54
2022-11-12T23:06:21.864Z,6.46
2022-11-12T23:09:07.402Z,6.39
2022-11-12T23:11:52.824Z,6.40
2022-11-12T23:14:38.048Z,6.41
2022-11-12T23:17:23.375Z,6.36
2022-11-12T23:20:09.595Z,6.34
2022-11-12T23:22:55.188Z,6.28
2022-11-12T23:25:41.153Z,6.23
2022-11-12T23:28:26.788Z,6.19
2022-11-12T23:31:18.882Z,6.25
2022-11-12T23:34:04.517Z,6.17
2022-11-12T23:36:50.131Z,6.10
2022-11-12T23:39:35.404Z,6.08
2022-11-12T23:42:20.801Z,6.02
2022-11-12T23:45:06.794Z,5.99
2022-11-12T23:47:52.605Z,5.97
2022-11-12T23:50:38.331Z,5.96
2022-11-12T23:53:23.540Z,5.93
2022-11-12T23:56:10.558Z,5.86
2022-11-12T23:58:56.085Z,5.82
